Date,TemperatureHighF,TemperatureAvgF,TemperatureLowF,DewpointHighF,DewpointAvgF,DewpointLowF,HumidityHigh,HumidityAvg,HumidityLow,PressureMaxIn,PressureMinIn,WindSpeedMaxMPH,WindSpeedAvgMPH,GustSpeedMaxMPH,PrecipitationSumIn
2012-4-19,67.5,61.7,56.7,48.2,47.2,45.9,67,59,50,29.68,29.66,1,0,1,0.00
2012-4-20,72.0,62.3,52.7,54.0,48.9,45.9,82,62,44,29.67,29.38,6,2,6,0.00
2012-4-21,59.4,47.0,40.3,48.4,43.8,39.2,96,89,64,29.69,29.38,12,4,12,0.57
2012-4-22,43.3,41.7,40.1,40.6,38.5,36.9,95,89,79,29.70,29.53,32,9,32,1.69
2012-4-23,41.2,38.8,36.3,39.5,38.4,35.3,99,98,93,29.53,28.96,24,10,24,1.02
2012-4-24,51.6,41.5,36.0,42.3,37.3,35.2,99,86,57,29.33,28.92,24,8,24,0.08
2012-4-25,57.0,47.2,38.7,41.7,36.4,33.0,85,67,46,29.62,29.33,20,5,20,0.00
2012-4-26,39.6,39.4,39.2,33.6,33.3,33.0,79,79,77,29.59,29.57,2,0,2,0.00
2012-4-27,56.8,44.0,38.8,40.0,29.7,25.3,79,57,48,29.90,29.56,21,9,21,0.09
2012-4-28,51.6,45.9,29.7,34.8,30.1,24.8,85,54,38,30.03,29.91,11,3,11,0.00
2012-4-29,60.8,48.2,34.3,38.2,29.3,22.9,69,50,27,30.01,29.91,17,4,17,0.00
2012-4-30,61.5,46.4,32.2,46.8,30.5,20.9,87,58,22,30.02,29.68,14,3,14,0.05
2012-5-1,60.3,54.2,49.8,54.1,49.0,46.4,98,83,69,29.80,29.57,13,3,13,0.15
2012-5-2,74.5,62.7,50.5,58.6,52.9,47.9,92,71,57,29.80,29.68,12,5,12,0.00
2012-5-3,80.1,66.9,56.7,65.5,58.9,53.1,92,76,56,29.81,29.58,16,3,16,0.30
2012-5-4,74.7,67.9,55.4,64.9,60.0,53.2,97,76,66,34.15,29.61,12,4,13,0.26
2012-5-5,64.2,52.6,48.9,56.5,44.5,40.6,84,74,63,29.87,29.70,16,7,17,0.00
2012-5-9,71.4,71.4,71.4,52.9,52.9,52.9,52,52,52,29.45,29.45,11,11,11,0.00
2012-7-17,103.3,91.8,76.1,75.7,69.9,60.3,87,51,35,29.52,29.40,30,8,30,0.14
2012-7-18,87.1,77.8,69.1,74.4,68.6,57.6,96,75,44,29.69,29.47,12,2,12,0.00
2012-7-19,77.0,70.9,63.1,65.3,59.2,52.9,95,68,51,29.84,29.67,14,4,14,0.00
2012-7-20,74.5,70.8,66.0,62.9,57.5,53.4,79,63,54,29.78,29.71,13,4,13,0.00
2012-7-21,80.8,72.2,61.0,66.9,63.8,59.8,97,76,59,29.82,29.73,9,2,9,0.00
2012-7-22,90.3,82.2,69.6,71.5,66.5,62.4,85,60,44,29.81,29.73,12,3,12,0.00
2012-7-23,99.7,84.9,70.5,74.6,68.9,61.2,96,63,35,29.75,29.40,26,7,26,0.28
2012-7-24,88.9,80.8,73.4,72.6,66.9,57.5,75,63,47,29.62,29.42,18,5,18,0.00
2012-7-25,86.2,77.3,64.6,63.8,60.7,57.3,84,57,43,29.71,29.61,9,2,9,0.00
2012-7-26,90.0,80.8,67.1,73.9,68.3,61.7,99,67,51,29.62,29.31,19,4,19,0.51
2012-7-27,82.2,74.1,68.0,71.0,67.3,64.7,95,80,61,29.65,29.39,10,2,10,0.00
2012-7-28,82.4,73.1,67.6,72.2,68.9,64.7,98,87,68,29.73,29.63,10,1,10,0.09
2012-7-29,86.4,75.8,65.7,70.5,63.7,54.5,96,69,37,29.78,29.70,9,1,9,0.00
2012-7-30,86.2,75.0,63.9,67.6,62.2,58.0,85,66,46,29.77,29.69,10,2,10,0.00
2012-7-31,93.9,76.8,68.5,70.7,67.8,61.7,98,76,43,29.69,29.50,22,5,22,1.16
2012-8-1,86.5,75.7,66.0,73.6,68.8,64.6,99,81,54,29.59,29.54,12,2,12,0.00
2012-8-2,86.2,79.1,66.6,72.3,69.1,64.1,97,73,56,29.62,29.56,8,2,8,0.00
2012-8-3,85.6,85.6,85.6,72.1,72.1,72.1,64,64,64,29.61,29.61,1,1,5,0.00
2012-8-4,85.6,85.6,85.6,72.1,72.1,72.1,64,64,64,29.61,29.61,1,1,5,0.00
2012-8-5,85.6,85.6,85.6,72.1,72.1,72.1,64,64,64,29.61,29.61,1,1,5,0.00
2012-8-7,92.8,81.8,67.6,62.8,59.1,50.7,75,48,31,29.93,29.85,11,3,11,1.44
2012-8-8,92.7,76.5,65.8,73.0,66.5,61.7,90,72,42,29.90,29.84,9,2,9,0.08
2012-8-9,82.8,74.6,69.3,73.7,68.9,65.3,94,82,68,29.85,29.76,14,3,14,0.01
2012-8-10,80.6,71.7,68.2,71.1,68.3,66.1,99,89,70,30.43,29.61,13,3,13,0.56
2012-8-11,83.7,73.4,63.7,69.5,63.2,58.1,99,73,47,29.80,29.64,17,5,17,0.00
2012-8-12,79.2,71.3,65.3,71.0,64.1,60.0,91,78,63,29.89,29.78,15,4,15,0.07
2012-8-13,88.5,74.3,65.8,66.9,64.1,59.8,93,72,43,29.95,29.88,8,2,8,0.00
2012-8-14,83.8,72.0,67.1,70.4,67.1,63.7,97,85,60,29.89,29.76,14,4,14,0.13
2012-8-15,72.5,72.5,72.5,68.4,68.4,68.4,87,87,87,29.82,29.82,7,7,14,0.13
2012-8-16,72.5,72.5,72.5,68.4,68.4,68.4,87,87,87,29.82,29.82,7,7,14,0.13
2012-8-17,81.9,74.3,68.5,66.9,62.6,56.9,85,68,52,29.84,29.65,11,5,11,0.01
2012-8-18,77.7,69.0,58.5,57.9,52.5,49.6,82,57,39,29.93,29.85,8,2,8,0.00
2012-8-19,83.7,67.0,55.9,58.9,55.4,51.3,88,69,36,29.92,29.82,9,2,9,0.00
2012-8-20,81.0,69.5,59.2,61.8,56.2,51.5,89,65,40,29.91,29.81,7,1,7,0.00
2012-8-21,82.4,68.4,56.5,58.9,55.8,52.6,89,66,41,30.03,29.91,8,2,8,0.00
2012-8-22,83.3,70.0,58.6,63.7,58.4,53.2,84,68,47,30.10,30.02,8,2,8,0.00
2012-8-23,86.9,69.1,61.0,63.7,59.1,56.1,86,72,43,30.11,30.05,8,2,8,0.00
2012-8-24,88.5,74.7,62.8,66.1,61.3,57.4,85,65,44,30.13,30.06,7,3,7,0.00
2012-8-25,92.3,78.3,66.7,71.0,63.1,59.3,84,61,40,30.16,30.08,8,3,8,0.00
2012-8-26,87.8,79.4,65.1,67.3,64.8,58.7,86,62,50,30.19,30.03,8,3,8,0.00
2012-8-27,83.3,75.3,70.0,72.2,69.3,63.3,97,82,63,30.03,29.84,14,3,14,0.13
2012-8-28,83.8,74.4,68.2,71.0,65.9,58.1,97,76,51,29.93,29.81,17,4,17,0.00
2012-8-29,80.4,69.9,59.5,59.6,53.4,46.6,82,57,33,30.03,29.93,13,2,13,0.00
2012-8-30,89.8,72.2,56.8,64.0,57.3,49.9,84,62,39,30.03,29.92,11,3,11,0.00
2012-8-31,96.6,78.9,66.0,69.9,61.4,54.2,69,57,36,29.93,29.79,17,5,17,0.00
2012-9-1,81.0,73.2,64.0,68.0,63.4,56.0,90,72,45,30.06,29.92,11,2,11,0.00
2012-9-2,87.4,70.7,58.6,65.0,60.6,55.3,90,72,44,30.02,29.95,11,2,11,0.00
2012-9-3,88.7,74.6,61.9,72.3,66.2,57.6,88,76,56,29.98,29.88,14,3,14,0.00
2012-9-4,73.4,72.6,71.1,72.4,70.6,68.9,98,93,87,29.90,29.72,7,2,7,1.50
2012-9-5,71.1,71.1,71.1,70.5,70.5,70.5,98,98,98,29.74,29.74,3,3,3,1.50
2012-9-6,84.2,74.9,0.0,74.6,69.7,64.4,98,83,62,29.97,29.74,8,2,8,0.01
2012-9-7,87.6,76.5,61.3,67.4,63.9,57.6,98,69,46,30.00,29.89,8,1,8,0.00
2012-9-8,85.5,85.5,85.5,64.8,64.8,64.8,50,50,50,29.89,29.89,1,1,4,0.00
2012-9-9,73.2,68.5,56.7,59.0,55.6,51.0,95,65,47,30.02,29.84,11,3,11,0.00
2012-9-10,75.6,64.9,55.2,53.7,49.6,45.4,90,59,39,30.23,30.05,8,3,8,0.01
2012-9-11,83.1,71.3,51.4,59.6,55.0,46.6,86,59,37,30.32,30.22,8,1,8,0.00
2012-9-12,87.1,70.7,58.5,60.4,55.6,51.8,85,62,34,30.36,30.28,10,3,10,0.00
2012-9-13,86.5,64.5,64.2,57.6,57.6,55.3,79,78,35,30.34,30.29,2,1,2,0.00
2012-9-14,89.2,69.8,58.6,70.8,62.5,54.8,93,79,43,30.34,30.12,17,4,17,0.33
2012-9-15,71.4,62.6,56.5,57.7,54.3,52.4,88,75,59,30.30,30.20,11,3,11,0.00
2012-9-16,65.7,58.8,53.6,55.1,51.5,49.1,90,77,65,30.21,30.19,11,1,11,0.00
2012-9-17,82.9,68.7,57.6,58.8,54.5,50.9,84,63,35,30.11,29.93,8,3,8,0.00
2012-9-18,74.8,64.0,55.4,68.6,60.2,50.0,99,88,71,29.91,29.52,16,4,16,0.45
2012-9-19,67.3,57.3,50.4,51.6,48.3,46.1,92,73,51,30.25,29.88,11,2,11,0.00
2012-9-20,76.8,63.0,46.6,52.3,49.9,45.5,96,65,41,30.23,30.00,17,4,17,0.00
2012-9-21,74.8,64.2,58.5,63.7,57.4,52.1,98,79,62,30.02,29.95,15,3,15,0.20
2012-9-22,58.5,58.5,58.5,57.9,57.9,57.9,98,98,98,29.95,29.95,0,0,2,0.20
2012-10-2,65.7,60.1,54.1,62.8,57.9,51.6,97,93,86,30.03,29.94,4,2,4,0.04
2012-10-3,70.0,65.5,62.6,66.7,64.0,61.7,98,95,88,30.18,30.00,4,1,4,0.00
2012-10-4,79.2,68.2,61.5,63.8,58.8,54.1,98,74,45,30.21,30.10,6,3,6,0.00
2012-10-5,74.1,65.4,58.1,62.5,57.1,53.0,86,75,66,30.09,29.96,12,5,12,0.01
2012-10-6,60.6,53.6,49.1,54.5,46.0,37.1,99,77,50,30.08,29.87,14,5,14,0.79
2012-10-7,56.5,49.4,43.3,46.6,42.7,38.7,93,78,58,30.15,30.06,8,2,8,0.12
2012-10-8,43.2,42.7,39.7,42.4,42.2,39.5,99,98,93,30.25,30.15,4,0,4,0.00
2012-10-9,67.3,49.6,40.6,50.2,44.3,40.2,99,84,47,30.26,30.02,11,2,11,0.00
2012-10-10,58.1,51.1,46.0,48.2,45.6,43.5,94,82,65,30.02,29.81,15,4,15,0.00
2012-10-11,46.4,45.5,41.7,38.3,37.1,35.7,80,72,68,30.23,30.03,17,6,17,0.01
2012-10-12,45.7,45.7,45.7,37.2,37.2,37.2,72,72,72,30.23,30.23,5,5,8,0.01
2012-10-13,45.7,45.7,45.7,37.2,37.2,37.2,72,72,72,30.23,30.23,5,5,8,0.01
2012-10-14,61.2,52.4,45.7,59.5,47.5,37.2,99,84,72,30.23,29.97,15,7,15,0.49
2012-10-15,61.0,59.3,56.7,52.3,50.1,45.4,76,71,63,29.75,29.66,14,7,19,0.00
2012-10-16,54.1,46.7,41.2,44.6,41.5,38.8,93,82,65,29.97,29.85,11,2,11,0.01
2012-10-17,72.0,54.3,39.0,50.1,43.5,38.4,99,71,36,29.99,29.84,11,2,11,0.00
2012-10-18,73.2,60.5,52.0,52.5,47.7,44.8,85,64,40,29.95,29.77,24,5,24,0.07
2012-10-19,67.5,55.4,46.9,57.8,53.0,46.7,99,92,68,29.98,29.66,9,2,9,0.17
2012-10-20,60.3,56.2,50.9,56.7,48.5,42.5,97,77,54,29.76,29.66,18,5,18,0.00
2012-10-21,65.5,58.4,48.6,50.2,46.5,41.5,91,66,47,30.14,29.82,19,7,19,0.01
2012-10-22,68.0,56.4,48.2,56.0,48.7,44.7,90,76,57,30.19,30.12,12,2,12,0.00
2012-10-23,53.8,51.8,48.0,52.7,50.6,45.4,99,96,82,30.17,30.09,8,3,8,0.32
2012-10-24,59.0,55.2,52.3,57.7,54.2,51.4,99,96,92,30.18,30.13,6,1,6,0.00
2012-10-26,82.2,66.1,51.8,61.0,55.6,48.9,93,70,46,30.06,29.93,16,6,16,0.01
2012-10-27,54.5,51.9,47.7,53.1,51.1,47.4,99,97,93,30.04,29.84,14,3,14,0.18
2012-10-28,48.0,46.2,45.1,47.8,45.7,44.3,99,98,97,29.95,29.76,16,4,16,0.18
2012-10-29,56.1,49.3,47.8,54.1,49.0,47.6,99,99,92,29.76,28.98,40,9,40,0.38
2012-10-30,58.5,52.4,45.0,56.4,48.1,42.5,96,85,68,29.31,28.97,23,7,23,0.09
2012-10-31,50.5,45.9,43.2,43.6,41.6,38.4,98,85,69,29.34,29.27,8,3,8,0.01
2012-11-1,46.6,45.4,44.4,44.7,43.5,42.1,98,93,86,29.42,29.29,17,6,17,0.17
2012-11-9,46.8,45.5,43.7,38.7,38.2,37.3,79,75,73,29.92,29.90,8,4,8,0.15
2012-11-10,53.4,47.8,40.6,47.4,44.1,40.4,99,87,75,30.05,29.93,8,2,8,0.02
2012-11-11,74.7,60.5,50.0,48.4,45.5,40.1,93,60,35,30.00,29.92,9,4,9,0.07
2012-11-12,68.5,60.5,44.1,53.5,47.3,40.9,92,63,50,29.92,29.65,19,8,19,0.27
2012-11-13,44.1,40.3,39.2,41.9,29.8,25.8,92,66,58,30.26,29.90,10,4,10,0.01
2012-11-14,39.2,38.8,38.7,29.6,28.6,27.7,69,66,64,30.29,30.26,8,2,8,0.00
2012-11-19,35.6,34.7,34.3,32.4,31.9,31.3,91,89,87,29.91,29.88,2,0,2,0.00
2012-11-20,50.2,41.1,33.3,43.8,37.3,31.5,97,87,73,29.88,29.77,8,1,8,0.00
2012-11-21,58.3,44.6,31.3,45.7,39.4,30.0,98,83,55,29.91,29.81,10,2,10,0.00
2012-11-22,67.5,48.6,35.6,44.8,36.1,29.4,95,65,32,29.85,29.61,11,4,11,0.00
2012-11-23,56.3,48.3,37.4,47.1,36.3,27.1,79,63,52,29.61,29.28,30,8,30,0.00
2012-11-24,41.7,36.2,33.1,31.6,26.4,20.2,87,68,57,29.55,29.35,30,14,30,0.00
2012-11-25,39.0,34.7,33.4,30.1,26.1,20.2,83,71,57,29.54,29.46,21,7,21,0.00
2012-11-26,43.0,39.2,34.5,35.1,31.1,27.1,79,72,69,29.75,29.49,20,9,20,0.00
2012-11-27,41.7,41.7,41.7,33.0,33.0,33.0,71,71,71,29.75,29.75,10,10,11,0.00
2012-11-28,41.7,41.7,41.7,33.0,33.0,33.0,71,71,71,29.75,29.75,10,10,11,0.00
2012-11-29,41.7,41.7,41.7,33.0,33.0,33.0,71,71,71,29.75,29.75,10,10,11,0.00
2012-11-30,41.7,41.7,41.7,33.0,33.0,33.0,71,71,71,29.75,29.75,10,10,11,0.00
2012-12-6,43.5,37.2,28.8,28.0,24.6,21.3,78,60,50,29.92,29.59,14,5,14,0.41
2012-12-7,37.4,37.4,37.4,24.8,24.8,24.8,60,60,60,29.59,29.59,5,5,14,0.41
2012-12-8,47.3,42.5,38.8,47.0,41.7,35.3,99,97,87,29.67,29.28,14,4,14,0.06
2012-12-9,42.3,37.8,35.1,42.0,34.1,29.5,99,86,74,29.82,29.30,15,6,15,0.11
2012-12-10,54.0,47.7,37.2,51.7,46.2,33.4,99,95,86,29.30,29.05,24,7,24,0.12
2012-12-11,38.3,33.4,27.1,33.7,29.0,23.8,95,84,77,29.70,29.28,13,3,13,0.00
2012-12-12,41.2,35.8,30.0,32.0,30.3,28.0,95,81,69,29.85,29.70,12,6,12,0.00
2012-12-13,52.5,39.0,31.1,31.4,26.7,23.0,84,63,37,29.97,29.72,11,4,11,0.00
2012-12-14,51.8,40.8,34.7,37.9,30.3,21.0,85,67,54,29.81,29.67,13,5,13,0.00
2012-12-15,41.5,38.2,36.0,35.4,33.2,31.0,88,82,76,29.85,29.53,11,5,11,0.00
2012-12-16,56.8,47.5,41.2,44.4,40.1,34.2,89,76,60,29.51,29.24,12,7,12,0.02
2012-12-17,52.3,47.9,45.3,49.6,46.1,44.3,99,94,84,29.29,29.09,6,4,6,0.17
2012-12-18,45.1,43.0,41.7,44.3,40.3,32.6,99,91,69,29.24,28.99,21,7,21,0.24
2012-12-19,49.5,40.3,32.5,38.4,33.0,25.3,92,75,64,29.73,29.24,19,6,19,0.00
2012-12-20,40.6,34.1,27.5,37.5,26.4,13.1,94,74,55,29.73,28.97,24,7,25,0.20
2012-12-21,40.6,37.4,33.3,39.1,36.1,31.2,99,95,88,28.98,28.72,26,7,26,0.43
2012-12-22,33.6,31.3,28.9,31.2,27.3,24.9,96,85,72,29.42,28.84,39,16,39,0.01
2012-12-23,43.0,34.6,31.1,31.4,26.7,20.4,88,73,61,29.53,29.31,22,8,22,0.00
2012-12-24,43.3,33.2,30.0,27.9,22.6,19.1,86,65,50,29.60,29.43,14,4,14,0.00
2012-12-25,34.7,32.0,29.7,30.6,26.2,23.5,89,79,66,29.87,29.44,17,4,17,0.01
2012-12-26,31.5,25.6,23.4,24.2,17.8,14.9,76,72,66,29.88,29.57,15,5,15,0.00
2012-12-27,29.7,28.1,26.6,28.7,25.4,22.8,96,90,84,29.55,29.22,26,10,26,0.00
2012-12-28,32.4,28.9,26.1,28.5,25.2,22.2,89,86,84,29.67,29.55,11,5,11,0.00
2012-12-29,32.2,29.0,27.0,29.3,25.6,22.1,91,87,81,29.55,29.21,11,4,11,0.00
2012-12-30,33.8,29.0,25.7,26.1,21.1,17.6,91,73,55,29.76,29.34,26,11,26,0.00
2012-12-31,40.3,33.9,29.1,27.6,25.0,22.2,77,70,55,29.70,29.37,16,8,16,0.00
2013-1-1,35.2,25.4,19.9,27.1,13.9,9.7,73,61,54,29.59,29.37,24,7,24,0.00